sensor_id;sensor_type;location;lat;lon;timestamp;temperature;humidity
20650;DHT22;10484;48.736;9.332;2022-12-15T00:01:06;0.40;1.00
20650;DHT22;10484;48.736;9.332;2022-12-15T00:03:50;0.40;1.00
20650;DHT22;10484;48.736;9.332;2022-12-15T00:06:34;0.40;1.00
20650;DHT22;10484;48.736;9.332;2022-12-15T00:09:18;0.40;1.00
20650;DHT22;10484;48.736;9.332;2022-12-15T00:12:03;0.40;1.00
20650;DHT22;10484;48.736;9.332;2022-12-15T00:14:47;0.40;1.00
20650;DHT22;10484;48.736;9.332;2022-12-15T00:17:32;0.40;1.00
20650;DHT22;10484;48.736;9.332;2022-12-15T00:20:16;0.40;1.00
20650;DHT22;10484;48.736;9.332;2022-12-15T00:23:08;0.40;1.00
20650;DHT22;10484;48.736;9.332;2022-12-15T00:25:52;0.40;1.00
20650;DHT22;10484;48.736;9.332;2022-12-15T00:28:36;0.40;1.00
20650;DHT22;10484;48.736;9.332;2022-12-15T00:31:20;0.40;1.00
20650;DHT22;10484;48.736;9.332;2022-12-15T00:34:04;0.40;1.00
20650;DHT22;10484;48.736;9.332;2022-12-15T00:36:49;0.40;1.00
20650;DHT22;10484;48.736;9.332;2022-12-15T00:39:33;0.40;1.00
20650;DHT22;10484;48.736;9.332;2022-12-15T00:41:58;0.40;1.00
20650;DHT22;10484;48.736;9.332;2022-12-15T00:44:24;0.40;1.00
20650;DHT22;10484;48.736;9.332;2022-12-15T00:46:49;0.40;1.00
20650;DHT22;10484;48.736;9.332;2022-12-15T00:49:26;0.40;1.00
20650;DHT22;10484;48.736;9.332;2022-12-15T00:52:12;0.40;1.00
20650;DHT22;10484;48.736;9.332;2022-12-15T00:54:57;0.40;1.00
20650;DHT22;10484;48.736;9.332;2022-12-15T00:57:41;0.40;1.00
20650;DHT22;10484;48.736;9.332;2022-12-15T01:00:26;0.40;1.00
20650;DHT22;10484;48.736;9.332;2022-12-15T01:03:21;0.40;1.00
20650;DHT22;10484;48.736;9.332;2022-12-15T01:06:08;0.40;1.00
20650;DHT22;10484;48.736;9.332;2022-12-15T01:08:52;0.30;1.00
20650;DHT22;10484;48.736;9.332;2022-12-15T01:11:37;0.30;1.00
20650;DHT22;10484;48.736;9.332;2022-12-15T01:14:22;0.30;1.00
20650;DHT22;10484;48.736;9.332;2022-12-15T01:17:06;0.30;1.00
20650;DHT22;10484;48.736;9.332;2022-12-15T01:19:50;0.30;1.00
20650;DHT22;10484;48.736;9.332;2022-12-15T01:22:38;0.30;1.00
20650;DHT22;10484;48.736;9.332;2022-12-15T01:25:05;0.30;1.00
20650;DHT22;10484;48.736;9.332;2022-12-15T01:27:31;0.30;1.00
20650;DHT22;10484;48.736;9.332;2022-12-15T01:29:57;0.30;1.00
20650;DHT22;10484;48.736;9.332;2022-12-15T01:32:23;0.30;1.00
20650;DHT22;10484;48.736;9.332;2022-12-15T01:34:49;0.30;1.00
20650;DHT22;10484;48.736;9.332;2022-12-15T01:37:15;0.30;1.00
20650;DHT22;10484;48.736;9.332;2022-12-15T01:39:41;0.30;1.00
20650;DHT22;10484;48.736;9.332;2022-12-15T01:42:26;0.30;1.00
20650;DHT22;10484;48.736;9.332;2022-12-15T01:44:52;0.30;1.00
20650;DHT22;10484;48.736;9.332;2022-12-15T01:47:22;0.30;1.00
20650;DHT22;10484;48.736;9.332;2022-12-15T01:49:49;0.30;1.00
20650;DHT22;10484;48.736;9.332;2022-12-15T01:52:16;0.30;1.00
20650;DHT22;10484;48.736;9.332;2022-12-15T01:54:51;0.30;1.00
20650;DHT22;10484;48.736;9.332;2022-12-15T01:57:21;0.40;1.00
20650;DHT22;10484;48.736;9.332;2022-12-15T01:59:53;0.40;1.00
20650;DHT22;10484;48.736;9.332;2022-12-15T02:02:24;0.40;1.00
20650;DHT22;10484;48.736;9.332;2022-12-15T02:04:54;0.40;1.00
20650;DHT22;10484;48.736;9.332;2022-12-15T02:07:21;0.40;1.00
20650;DHT22;10484;48.736;9.332;2022-12-15T02:09:48;0.40;1.00
20650;DHT22;10484;48.736;9.332;2022-12-15T02:12:25;0.40;1.00
20650;DHT22;10484;48.736;9.332;2022-12-15T02:29:16;0.30;1.00
20650;DHT22;10484;48.736;9.332;2022-12-15T02:31:55;0.30;1.00
20650;DHT22;10484;48.736;9.332;2022-12-15T02:37:15;0.30;1.00
20650;DHT22;10484;48.736;9.332;2022-12-15T02:39:42;0.30;1.00
20650;DHT22;10484;48.736;9.332;2022-12-15T02:42:11;0.30;1.00
20650;DHT22;10484;48.736;9.332;2022-12-15T02:47:33;0.30;1.00
20650;DHT22;10484;48.736;9.332;2022-12-15T02:50:17;0.30;1.00
20650;DHT22;10484;48.736;9.332;2022-12-15T02:56:07;0.30;1.00
20650;DHT22;10484;48.736;9.332;2022-12-15T03:01:17;0.30;1.00
20650;DHT22;10484;48.736;9.332;2022-12-15T03:03:46;0.30;1.00
20650;DHT22;10484;48.736;9.332;2022-12-15T03:06:13;0.30;1.00
20650;DHT22;10484;48.736;9.332;2022-12-15T03:08:39;0.30;1.00
20650;DHT22;10484;48.736;9.332;2022-12-15T03:11:05;0.30;1.00
20650;DHT22;10484;48.736;9.332;2022-12-15T03:13:31;0.30;1.00
20650;DHT22;10484;48.736;9.332;2022-12-15T03:15:58;0.30;1.00
20650;DHT22;10484;48.736;9.332;2022-12-15T03:18:24;0.30;1.00
20650;DHT22;10484;48.736;9.332;2022-12-15T03:20:50;0.30;1.00
20650;DHT22;10484;48.736;9.332;2022-12-15T03:23:15;0.30;1.00
20650;DHT22;10484;48.736;9.332;2022-12-15T03:25:43;0.30;1.00
20650;DHT22;10484;48.736;9.332;2022-12-15T03:28:09;0.30;1.00
20650;DHT22;10484;48.736;9.332;2022-12-15T03:30:35;0.30;1.00
20650;DHT22;10484;48.736;9.332;2022-12-15T03:33:00;0.30;1.00
20650;DHT22;10484;48.736;9.332;2022-12-15T03:35:26;0.30;1.00
20650;DHT22;10484;48.736;9.332;2022-12-15T03:37:52;0.30;1.00
20650;DHT22;10484;48.736;9.332;2022-12-15T03:40:17;0.30;1.00
20650;DHT22;10484;48.736;9.332;2022-12-15T03:42:43;0.30;1.00
20650;DHT22;10484;48.736;9.332;2022-12-15T03:45:15;0.30;1.00
20650;DHT22;10484;48.736;9.332;2022-12-15T03:47:43;0.30;1.00
20650;DHT22;10484;48.736;9.332;2022-12-15T03:50:10;0.30;1.00
20650;DHT22;10484;48.736;9.332;2022-12-15T03:52:36;0.30;1.00
20650;DHT22;10484;48.736;9.332;2022-12-15T03:55:02;0.30;1.00
20650;DHT22;10484;48.736;9.332;2022-12-15T03:57:27;0.30;1.00
20650;DHT22;10484;48.736;9.332;2022-12-15T03:59:53;0.30;1.00
20650;DHT22;10484;48.736;9.332;2022-12-15T04:02:19;0.30;1.00
20650;DHT22;10484;48.736;9.332;2022-12-15T04:04:45;0.30;1.00
20650;DHT22;10484;48.736;9.332;2022-12-15T04:07:11;0.30;1.00
20650;DHT22;10484;48.736;9.332;2022-12-15T04:09:36;0.30;1.00
20650;DHT22;10484;48.736;9.332;2022-12-15T04:12:02;0.30;1.00
20650;DHT22;10484;48.736;9.332;2022-12-15T04:14:28;0.30;1.00
20650;DHT22;10484;48.736;9.332;2022-12-15T04:16:55;0.30;1.00
20650;DHT22;10484;48.736;9.332;2022-12-15T04:19:20;0.30;1.00
20650;DHT22;10484;48.736;9.332;2022-12-15T04:22:04;0.30;1.00
20650;DHT22;10484;48.736;9.332;2022-12-15T04:24:30;0.30;1.00
20650;DHT22;10484;48.736;9.332;2022-12-15T04:27:14;0.30;1.00
20650;DHT22;10484;48.736;9.332;2022-12-15T04:29:58;0.30;1.00
20650;DHT22;10484;48.736;9.332;2022-12-15T04:32:43;0.30;1.00
20650;DHT22;10484;48.736;9.332;2022-12-15T04:35:27;0.30;1.00
20650;DHT22;10484;48.736;9.332;2022-12-15T04:38:12;0.30;1.00
20650;DHT22;10484;48.736;9.332;2022-12-15T04:40:56;0.30;1.00
20650;DHT22;10484;48.736;9.332;2022-12-15T04:43:40;0.30;1.00
20650;DHT22;10484;48.736;9.332;2022-12-15T04:46:24;0.30;1.00
20650;DHT22;10484;48.736;9.332;2022-12-15T04:49:08;0.30;1.00
20650;DHT22;10484;48.736;9.332;2022-12-15T04:51:52;0.30;1.00
20650;DHT22;10484;48.736;9.332;2022-12-15T04:54:36;0.30;1.00
20650;DHT22;10484;48.736;9.332;2022-12-15T04:57:20;0.30;1.00
20650;DHT22;10484;48.736;9.332;2022-12-15T05:00:05;0.30;1.00
20650;DHT22;10484;48.736;9.332;2022-12-15T05:02:49;0.20;1.00
20650;DHT22;10484;48.736;9.332;2022-12-15T05:05:33;0.30;1.00
20650;DHT22;10484;48.736;9.332;2022-12-15T05:08:17;0.20;1.00
20650;DHT22;10484;48.736;9.332;2022-12-15T05:11:01;0.30;1.00
20650;DHT22;10484;48.736;9.332;2022-12-15T05:13:45;0.30;1.00
20650;DHT22;10484;48.736;9.332;2022-12-15T05:16:29;0.20;1.00
20650;DHT22;10484;48.736;9.332;2022-12-15T05:19:13;0.20;1.00
20650;DHT22;10484;48.736;9.332;2022-12-15T05:21:57;0.20;1.00
20650;DHT22;10484;48.736;9.332;2022-12-15T05:24:41;0.20;1.00
20650;DHT22;10484;48.736;9.332;2022-12-15T05:27:25;0.20;1.00
20650;DHT22;10484;48.736;9.332;2022-12-15T05:30:09;0.20;1.00
20650;DHT22;10484;48.736;9.332;2022-12-15T05:32:53;0.20;1.00
20650;DHT22;10484;48.736;9.332;2022-12-15T05:35:19;0.20;1.00
20650;DHT22;10484;48.736;9.332;2022-12-15T05:37:45;0.20;1.00
20650;DHT22;10484;48.736;9.332;2022-12-15T05:40:11;0.20;1.00
20650;DHT22;10484;48.736;9.332;2022-12-15T05:42:36;0.20;1.00
20650;DHT22;10484;48.736;9.332;2022-12-15T05:45:02;0.20;1.00
20650;DHT22;10484;48.736;9.332;2022-12-15T05:47:29;0.20;1.00
20650;DHT22;10484;48.736;9.332;2022-12-15T05:49:55;0.20;1.00
20650;DHT22;10484;48.736;9.332;2022-12-15T05:52:20;0.20;1.00
20650;DHT22;10484;48.736;9.332;2022-12-15T05:54:46;0.20;1.00
20650;DHT22;10484;48.736;9.332;2022-12-15T05:57:12;0.20;1.00
20650;DHT22;10484;48.736;9.332;2022-12-15T05:59:37;0.20;1.00
20650;DHT22;10484;48.736;9.332;2022-12-15T06:02:04;0.20;1.00
20650;DHT22;10484;48.736;9.332;2022-12-15T06:04:29;0.20;1.00
20650;DHT22;10484;48.736;9.332;2022-12-15T06:06:55;0.20;1.00
20650;DHT22;10484;48.736;9.332;2022-12-15T06:09:20;0.20;1.00
20650;DHT22;10484;48.736;9.332;2022-12-15T06:11:46;0.20;1.00
20650;DHT22;10484;48.736;9.332;2022-12-15T06:14:12;0.20;1.00
20650;DHT22;10484;48.736;9.332;2022-12-15T06:16:37;0.30;1.00
20650;DHT22;10484;48.736;9.332;2022-12-15T06:19:03;0.30;1.00
20650;DHT22;10484;48.736;9.332;2022-12-15T06:21:34;0.30;1.00
20650;DHT22;10484;48.736;9.332;2022-12-15T06:24:00;0.20;1.00
20650;DHT22;10484;48.736;9.332;2022-12-15T06:26:29;0.20;1.00
20650;DHT22;10484;48.736;9.332;2022-12-15T06:28:57;0.20;1.00
20650;DHT22;10484;48.736;9.332;2022-12-15T06:31:23;0.20;1.00
20650;DHT22;10484;48.736;9.332;2022-12-15T06:33:53;0.20;1.00
20650;DHT22;10484;48.736;9.332;2022-12-15T06:36:20;0.20;1.00
20650;DHT22;10484;48.736;9.332;2022-12-15T06:38:48;0.20;1.00
20650;DHT22;10484;48.736;9.332;2022-12-15T06:41:17;0.20;1.00
20650;DHT22;10484;48.736;9.332;2022-12-15T06:43:48;0.10;1.00
20650;DHT22;10484;48.736;9.332;2022-12-15T06:46:15;0.10;1.00
20650;DHT22;10484;48.736;9.332;2022-12-15T06:48:40;0.10;1.00
20650;DHT22;10484;48.736;9.332;2022-12-15T06:51:10;0.00;1.00
20650;DHT22;10484;48.736;9.332;2022-12-15T06:53:37;0.10;1.00
20650;DHT22;10484;48.736;9.332;2022-12-15T06:56:05;0.00;1.00
20650;DHT22;10484;48.736;9.332;2022-12-15T06:58:32;0.10;1.00
20650;DHT22;10484;48.736;9.332;2022-12-15T07:00:58;0.10;1.00
20650;DHT22;10484;48.736;9.332;2022-12-15T07:03:23;0.10;1.00
20650;DHT22;10484;48.736;9.332;2022-12-15T07:06:03;0.10;1.00
20650;DHT22;10484;48.736;9.332;2022-12-15T07:08:30;0.00;1.00
20650;DHT22;10484;48.736;9.332;2022-12-15T07:10:55;0.00;1.00
20650;DHT22;10484;48.736;9.332;2022-12-15T07:13:22;0.00;1.00
20650;DHT22;10484;48.736;9.332;2022-12-15T07:15:47;0.10;1.00
20650;DHT22;10484;48.736;9.332;2022-12-15T07:18:15;0.00;1.00
20650;DHT22;10484;48.736;9.332;2022-12-15T07:20:41;0.10;1.00
20650;DHT22;10484;48.736;9.332;2022-12-15T07:23:07;0.10;1.00
20650;DHT22;10484;48.736;9.332;2022-12-15T07:25:37;0.10;1.00
20650;DHT22;10484;48.736;9.332;2022-12-15T07:28:03;0.10;1.00
20650;DHT22;10484;48.736;9.332;2022-12-15T07:30:30;0.10;1.00
20650;DHT22;10484;48.736;9.332;2022-12-15T07:32:56;0.10;1.00
20650;DHT22;10484;48.736;9.332;2022-12-15T07:35:22;0.10;1.00
20650;DHT22;10484;48.736;9.332;2022-12-15T07:37:48;0.10;1.00
20650;DHT22;10484;48.736;9.332;2022-12-15T07:40:13;0.10;1.00
20650;DHT22;10484;48.736;9.332;2022-12-15T07:42:39;0.10;1.00
20650;DHT22;10484;48.736;9.332;2022-12-15T07:45:05;0.10;1.00
20650;DHT22;10484;48.736;9.332;2022-12-15T07:47:32;0.10;1.00
20650;DHT22;10484;48.736;9.332;2022-12-15T07:49:57;0.10;1.00
20650;DHT22;10484;48.736;9.332;2022-12-15T07:52:23;0.00;1.00
20650;DHT22;10484;48.736;9.332;2022-12-15T07:54:49;0.10;1.00
20650;DHT22;10484;48.736;9.332;2022-12-15T07:57:15;0.10;1.00
20650;DHT22;10484;48.736;9.332;2022-12-15T07:59:42;0.10;1.00
20650;DHT22;10484;48.736;9.332;2022-12-15T08:02:09;0.10;1.00
20650;DHT22;10484;48.736;9.332;2022-12-15T08:04:36;0.10;1.00
20650;DHT22;10484;48.736;9.332;2022-12-15T08:07:01;0.10;1.00
20650;DHT22;10484;48.736;9.332;2022-12-15T08:09:27;0.10;1.00
20650;DHT22;10484;48.736;9.332;2022-12-15T08:11:52;0.10;1.00
20650;DHT22;10484;48.736;9.332;2022-12-15T08:14:18;0.10;1.00
20650;DHT22;10484;48.736;9.332;2022-12-15T08:16:44;0.10;1.00
20650;DHT22;10484;48.736;9.332;2022-12-15T08:19:11;0.10;1.00
20650;DHT22;10484;48.736;9.332;2022-12-15T08:21:41;0.20;1.00
20650;DHT22;10484;48.736;9.332;2022-12-15T08:24:08;0.20;1.00
20650;DHT22;10484;48.736;9.332;2022-12-15T08:26:35;0.20;1.00
20650;DHT22;10484;48.736;9.332;2022-12-15T08:29:05;0.20;1.00
20650;DHT22;10484;48.736;9.332;2022-12-15T08:31:31;0.20;1.00
20650;DHT22;10484;48.736;9.332;2022-12-15T08:34:03;0.30;1.00
20650;DHT22;10484;48.736;9.332;2022-12-15T08:36:29;0.30;1.00
20650;DHT22;10484;48.736;9.332;2022-12-15T08:38:55;0.30;1.00
20650;DHT22;10484;48.736;9.332;2022-12-15T08:41:31;0.30;1.00
20650;DHT22;10484;48.736;9.332;2022-12-15T08:43:59;0.30;1.00
20650;DHT22;10484;48.736;9.332;2022-12-15T08:46:30;0.40;1.00
20650;DHT22;10484;48.736;9.332;2022-12-15T08:48:57;0.40;1.00
20650;DHT22;10484;48.736;9.332;2022-12-15T08:51:24;0.40;1.00
20650;DHT22;10484;48.736;9.332;2022-12-15T08:53:50;0.40;1.00
20650;DHT22;10484;48.736;9.332;2022-12-15T08:56:17;0.40;1.00
20650;DHT22;10484;48.736;9.332;2022-12-15T08:58:45;0.40;1.00
20650;DHT22;10484;48.736;9.332;2022-12-15T09:01:14;0.40;1.00
20650;DHT22;10484;48.736;9.332;2022-12-15T09:03:41;0.50;1.00
20650;DHT22;10484;48.736;9.332;2022-12-15T09:06:13;0.50;1.00
20650;DHT22;10484;48.736;9.332;2022-12-15T09:08:39;0.50;1.00
20650;DHT22;10484;48.736;9.332;2022-12-15T09:11:05;0.50;1.00
20650;DHT22;10484;48.736;9.332;2022-12-15T09:13:31;0.50;1.00
20650;DHT22;10484;48.736;9.332;2022-12-15T09:15:58;0.50;1.00
20650;DHT22;10484;48.736;9.332;2022-12-15T09:18:24;0.50;1.00
20650;DHT22;10484;48.736;9.332;2022-12-15T09:20:50;0.50;1.00
20650;DHT22;10484;48.736;9.332;2022-12-15T09:23:16;0.50;1.00
20650;DHT22;10484;48.736;9.332;2022-12-15T09:25:41;0.60;1.00
20650;DHT22;10484;48.736;9.332;2022-12-15T09:28:07;0.60;1.00
20650;DHT22;10484;48.736;9.332;2022-12-15T09:30:33;0.60;1.00
20650;DHT22;10484;48.736;9.332;2022-12-15T09:32:58;0.70;1.00
20650;DHT22;10484;48.736;9.332;2022-12-15T09:35:27;0.70;1.00
20650;DHT22;10484;48.736;9.332;2022-12-15T09:37:53;0.70;1.00
20650;DHT22;10484;48.736;9.332;2022-12-15T09:40:20;0.70;1.00
20650;DHT22;10484;48.736;9.332;2022-12-15T09:42:51;0.70;1.00
20650;DHT22;10484;48.736;9.332;2022-12-15T09:45:20;0.80;1.00
20650;DHT22;10484;48.736;9.332;2022-12-15T09:50:33;0.80;1.00
20650;DHT22;10484;48.736;9.332;2022-12-15T09:52:59;0.80;1.00
20650;DHT22;10484;48.736;9.332;2022-12-15T09:55:30;0.80;1.00
20650;DHT22;10484;48.736;9.332;2022-12-15T10:00:55;0.80;1.00
20650;DHT22;10484;48.736;9.332;2022-12-15T10:03:49;0.90;1.00
20650;DHT22;10484;48.736;9.332;2022-12-15T10:06:27;0.90;1.00
20650;DHT22;10484;48.736;9.332;2022-12-15T10:09:02;0.90;1.00
20650;DHT22;10484;48.736;9.332;2022-12-15T10:11:43;0.90;1.00
20650;DHT22;10484;48.736;9.332;2022-12-15T10:17:23;0.90;1.00
20650;DHT22;10484;48.736;9.332;2022-12-15T10:22:20;0.90;1.00
20650;DHT22;10484;48.736;9.332;2022-12-15T10:24:47;0.90;1.00
20650;DHT22;10484;48.736;9.332;2022-12-15T10:27:17;0.90;1.00
20650;DHT22;10484;48.736;9.332;2022-12-15T10:29:50;1.00;1.00
20650;DHT22;10484;48.736;9.332;2022-12-15T10:34:54;1.00;1.00
20650;DHT22;10484;48.736;9.332;2022-12-15T10:37:20;0.90;1.00
20650;DHT22;10484;48.736;9.332;2022-12-15T10:39:47;0.90;1.00
20650;DHT22;10484;48.736;9.332;2022-12-15T10:42:15;0.90;1.00
20650;DHT22;10484;48.736;9.332;2022-12-15T10:44:43;0.90;1.00
20650;DHT22;10484;48.736;9.332;2022-12-15T10:47:14;0.90;1.00
20650;DHT22;10484;48.736;9.332;2022-12-15T10:49:41;0.90;1.00
20650;DHT22;10484;48.736;9.332;2022-12-15T10:52:30;1.00;1.00
20650;DHT22;10484;48.736;9.332;2022-12-15T10:54:57;1.00;1.00
20650;DHT22;10484;48.736;9.332;2022-12-15T10:57:26;1.00;1.00
20650;DHT22;10484;48.736;9.332;2022-12-15T10:59:53;1.00;1.00
20650;DHT22;10484;48.736;9.332;2022-12-15T11:08:15;0.90;1.00
20650;DHT22;10484;48.736;9.332;2022-12-15T11:10:53;0.90;1.00
20650;DHT22;10484;48.736;9.332;2022-12-15T11:13:38;1.00;1.00
20650;DHT22;10484;48.736;9.332;2022-12-15T11:16:18;1.00;1.00
20650;DHT22;10484;48.736;9.332;2022-12-15T11:21:47;1.00;1.00
20650;DHT22;10484;48.736;9.332;2022-12-15T11:24:58;1.10;1.00
20650;DHT22;10484;48.736;9.332;2022-12-15T11:27:27;1.10;1.00
20650;DHT22;10484;48.736;9.332;2022-12-15T11:30:17;1.10;1.00
20650;DHT22;10484;48.736;9.332;2022-12-15T11:33:01;1.10;1.00
20650;DHT22;10484;48.736;9.332;2022-12-15T11:35:48;1.10;1.00
20650;DHT22;10484;48.736;9.332;2022-12-15T11:38:51;1.10;1.00
20650;DHT22;10484;48.736;9.332;2022-12-15T11:44:26;1.10;1.00
20650;DHT22;10484;48.736;9.332;2022-12-15T11:47:36;1.10;1.00
20650;DHT22;10484;48.736;9.332;2022-12-15T11:52:49;1.10;1.00
20650;DHT22;10484;48.736;9.332;2022-12-15T11:55:34;1.10;1.00
20650;DHT22;10484;48.736;9.332;2022-12-15T12:00:42;1.20;1.00
20650;DHT22;10484;48.736;9.332;2022-12-15T12:03:14;1.20;1.00
20650;DHT22;10484;48.736;9.332;2022-12-15T12:11:19;1.20;1.00
20650;DHT22;10484;48.736;9.332;2022-12-15T12:16:43;1.30;1.00
20650;DHT22;10484;48.736;9.332;2022-12-15T12:19:26;1.20;1.00
20650;DHT22;10484;48.736;9.332;2022-12-15T12:22:03;1.20;1.00
20650;DHT22;10484;48.736;9.332;2022-12-15T12:24:38;1.20;1.00
20650;DHT22;10484;48.736;9.332;2022-12-15T12:27:25;1.30;1.00
20650;DHT22;10484;48.736;9.332;2022-12-15T12:30:03;1.30;1.00
20650;DHT22;10484;48.736;9.332;2022-12-15T12:35:15;1.40;1.00
20650;DHT22;10484;48.736;9.332;2022-12-15T12:37:52;1.40;1.00
20650;DHT22;10484;48.736;9.332;2022-12-15T12:42:53;1.30;1.00
20650;DHT22;10484;48.736;9.332;2022-12-15T12:45:23;1.30;1.00
20650;DHT22;10484;48.736;9.332;2022-12-15T12:47:51;1.20;1.00
20650;DHT22;10484;48.736;9.332;2022-12-15T12:50:21;1.30;1.00
20650;DHT22;10484;48.736;9.332;2022-12-15T12:52:53;1.30;1.00
20650;DHT22;10484;48.736;9.332;2022-12-15T12:55:22;1.40;1.00
20650;DHT22;10484;48.736;9.332;2022-12-15T12:57:50;1.40;1.00
20650;DHT22;10484;48.736;9.332;2022-12-15T13:00:19;1.40;1.00
20650;DHT22;10484;48.736;9.332;2022-12-15T13:05:43;1.50;1.00
20650;DHT22;10484;48.736;9.332;2022-12-15T13:10:45;1.60;1.00
20650;DHT22;10484;48.736;9.332;2022-12-15T13:15:59;1.50;1.00
20650;DHT22;10484;48.736;9.332;2022-12-15T13:18:26;1.50;1.00
20650;DHT22;10484;48.736;9.332;2022-12-15T13:20:54;1.50;1.00
20650;DHT22;10484;48.736;9.332;2022-12-15T13:44:26;1.60;1.00
20650;DHT22;10484;48.736;9.332;2022-12-15T13:46:53;1.60;1.00
20650;DHT22;10484;48.736;9.332;2022-12-15T13:49:32;1.60;1.00
20650;DHT22;10484;48.736;9.332;2022-12-15T13:55:21;1.60;1.00
20650;DHT22;10484;48.736;9.332;2022-12-15T13:58:01;1.60;1.00
20650;DHT22;10484;48.736;9.332;2022-12-15T14:00:28;1.60;1.00
20650;DHT22;10484;48.736;9.332;2022-12-15T14:03:13;1.60;1.00
20650;DHT22;10484;48.736;9.332;2022-12-15T14:05:39;1.60;1.00
20650;DHT22;10484;48.736;9.332;2022-12-15T14:08:12;1.60;1.00
20650;DHT22;10484;48.736;9.332;2022-12-15T14:10:52;1.60;1.00
20650;DHT22;10484;48.736;9.332;2022-12-15T14:13:33;1.60;1.00
20650;DHT22;10484;48.736;9.332;2022-12-15T14:16:20;1.60;1.00
20650;DHT22;10484;48.736;9.332;2022-12-15T14:21:28;1.60;1.00
20650;DHT22;10484;48.736;9.332;2022-12-15T14:23:54;1.60;1.00
20650;DHT22;10484;48.736;9.332;2022-12-15T14:26:26;1.60;1.00
20650;DHT22;10484;48.736;9.332;2022-12-15T14:29:04;1.60;1.00
20650;DHT22;10484;48.736;9.332;2022-12-15T14:31:30;1.60;1.00
20650;DHT22;10484;48.736;9.332;2022-12-15T14:34:09;1.60;1.00
20650;DHT22;10484;48.736;9.332;2022-12-15T14:36:36;1.60;1.00
20650;DHT22;10484;48.736;9.332;2022-12-15T14:39:04;1.60;1.00
20650;DHT22;10484;48.736;9.332;2022-12-15T14:41:36;1.50;1.00
20650;DHT22;10484;48.736;9.332;2022-12-15T14:44:10;1.50;1.00
20650;DHT22;10484;48.736;9.332;2022-12-15T14:46:46;1.50;1.00
20650;DHT22;10484;48.736;9.332;2022-12-15T14:49:19;1.50;1.00
20650;DHT22;10484;48.736;9.332;2022-12-15T14:51:48;1.50;1.00
20650;DHT22;10484;48.736;9.332;2022-12-15T14:54:32;1.40;1.00
20650;DHT22;10484;48.736;9.332;2022-12-15T14:57:21;1.40;1.00
20650;DHT22;10484;48.736;9.332;2022-12-15T14:59:48;1.40;1.00
20650;DHT22;10484;48.736;9.332;2022-12-15T15:02:27;1.40;1.00
20650;DHT22;10484;48.736;9.332;2022-12-15T15:04:54;1.40;1.00
20650;DHT22;10484;48.736;9.332;2022-12-15T15:07:21;1.40;1.00
20650;DHT22;10484;48.736;9.332;2022-12-15T15:09:48;1.50;1.00
20650;DHT22;10484;48.736;9.332;2022-12-15T15:14:45;1.50;1.00
20650;DHT22;10484;48.736;9.332;2022-12-15T15:17:29;1.50;1.00
20650;DHT22;10484;48.736;9.332;2022-12-15T15:20:00;1.50;1.00
20650;DHT22;10484;48.736;9.332;2022-12-15T15:22:38;1.60;1.00
20650;DHT22;10484;48.736;9.332;2022-12-15T15:25:28;1.60;1.00
20650;DHT22;10484;48.736;9.332;2022-12-15T15:33:13;1.50;1.00
20650;DHT22;10484;48.736;9.332;2022-12-15T15:35:41;1.50;1.00
20650;DHT22;10484;48.736;9.332;2022-12-15T15:38:19;1.50;1.00
20650;DHT22;10484;48.736;9.332;2022-12-15T15:40:54;1.60;1.00
20650;DHT22;10484;48.736;9.332;2022-12-15T15:43:20;1.70;1.00
20650;DHT22;10484;48.736;9.332;2022-12-15T15:45:47;1.70;1.00
20650;DHT22;10484;48.736;9.332;2022-12-15T15:48:17;1.70;1.00
20650;DHT22;10484;48.736;9.332;2022-12-15T15:50:44;1.60;1.00
20650;DHT22;10484;48.736;9.332;2022-12-15T15:53:17;1.60;1.00
20650;DHT22;10484;48.736;9.332;2022-12-15T15:55:45;1.60;1.00
20650;DHT22;10484;48.736;9.332;2022-12-15T15:58:12;1.60;1.00
20650;DHT22;10484;48.736;9.332;2022-12-15T16:00:38;1.60;1.00
20650;DHT22;10484;48.736;9.332;2022-12-15T16:03:04;1.50;1.00
20650;DHT22;10484;48.736;9.332;2022-12-15T16:05:30;1.50;1.00
20650;DHT22;10484;48.736;9.332;2022-12-15T16:07:56;1.40;1.00
20650;DHT22;10484;48.736;9.332;2022-12-15T16:10:23;1.40;1.00
20650;DHT22;10484;48.736;9.332;2022-12-15T16:12:51;1.40;1.00
20650;DHT22;10484;48.736;9.332;2022-12-15T16:15:23;1.50;1.00
20650;DHT22;10484;48.736;9.332;2022-12-15T16:17:50;1.50;1.00
20650;DHT22;10484;48.736;9.332;2022-12-15T16:20:18;1.50;1.00
20650;DHT22;10484;48.736;9.332;2022-12-15T16:22:47;1.50;1.00
20650;DHT22;10484;48.736;9.332;2022-12-15T16:25:28;1.40;1.00
20650;DHT22;10484;48.736;9.332;2022-12-15T16:27:54;1.40;1.00
20650;DHT22;10484;48.736;9.332;2022-12-15T16:30:23;1.40;1.00
20650;DHT22;10484;48.736;9.332;2022-12-15T16:32:50;1.40;1.00
20650;DHT22;10484;48.736;9.332;2022-12-15T16:35:16;1.40;1.00
20650;DHT22;10484;48.736;9.332;2022-12-15T16:37:44;1.40;1.00
20650;DHT22;10484;48.736;9.332;2022-12-15T16:40:16;1.30;1.00
20650;DHT22;10484;48.736;9.332;2022-12-15T16:42:44;1.30;1.00
20650;DHT22;10484;48.736;9.332;2022-12-15T16:45:15;1.40;1.00
20650;DHT22;10484;48.736;9.332;2022-12-15T16:47:45;1.40;1.00
20650;DHT22;10484;48.736;9.332;2022-12-15T16:50:12;1.40;1.00
20650;DHT22;10484;48.736;9.332;2022-12-15T16:52:40;1.40;1.00
20650;DHT22;10484;48.736;9.332;2022-12-15T16:55:15;1.50;1.00
20650;DHT22;10484;48.736;9.332;2022-12-15T16:57:42;1.40;1.00
20650;DHT22;10484;48.736;9.332;2022-12-15T17:00:16;1.40;1.00
20650;DHT22;10484;48.736;9.332;2022-12-15T17:02:42;1.40;1.00
20650;DHT22;10484;48.736;9.332;2022-12-15T17:05:08;1.40;1.00
20650;DHT22;10484;48.736;9.332;2022-12-15T17:07:34;1.40;1.00
20650;DHT22;10484;48.736;9.332;2022-12-15T17:09:59;1.40;1.00
20650;DHT22;10484;48.736;9.332;2022-12-15T17:12:27;1.40;1.00
20650;DHT22;10484;48.736;9.332;2022-12-15T17:14:53;1.40;1.00
20650;DHT22;10484;48.736;9.332;2022-12-15T17:17:19;1.40;1.00
20650;DHT22;10484;48.736;9.332;2022-12-15T17:19:44;1.40;1.00
20650;DHT22;10484;48.736;9.332;2022-12-15T17:22:12;1.40;1.00
20650;DHT22;10484;48.736;9.332;2022-12-15T17:24:40;1.40;1.00
20650;DHT22;10484;48.736;9.332;2022-12-15T17:27:06;1.40;1.00
20650;DHT22;10484;48.736;9.332;2022-12-15T17:29:58;1.40;1.00
20650;DHT22;10484;48.736;9.332;2022-12-15T17:32:50;1.40;1.00
20650;DHT22;10484;48.736;9.332;2022-12-15T17:35:16;1.40;1.00
20650;DHT22;10484;48.736;9.332;2022-12-15T17:37:42;1.40;1.00
20650;DHT22;10484;48.736;9.332;2022-12-15T17:40:21;1.30;1.00
20650;DHT22;10484;48.736;9.332;2022-12-15T17:42:47;1.40;1.00
20650;DHT22;10484;48.736;9.332;2022-12-15T17:45:21;1.30;1.00
20650;DHT22;10484;48.736;9.332;2022-12-15T17:47:49;1.30;1.00
20650;DHT22;10484;48.736;9.332;2022-12-15T17:50:15;1.30;1.00
20650;DHT22;10484;48.736;9.332;2022-12-15T17:52:45;1.40;1.00
20650;DHT22;10484;48.736;9.332;2022-12-15T17:55:24;1.40;1.00
20650;DHT22;10484;48.736;9.332;2022-12-15T17:57:51;1.40;1.00
20650;DHT22;10484;48.736;9.332;2022-12-15T18:00:23;1.40;1.00
20650;DHT22;10484;48.736;9.332;2022-12-15T18:02:53;1.40;1.00
20650;DHT22;10484;48.736;9.332;2022-12-15T18:05:20;1.40;1.00
20650;DHT22;10484;48.736;9.332;2022-12-15T18:07:51;1.30;1.00
20650;DHT22;10484;48.736;9.332;2022-12-15T18:10:30;1.40;1.00
20650;DHT22;10484;48.736;9.332;2022-12-15T18:12:58;1.40;1.00
20650;DHT22;10484;48.736;9.332;2022-12-15T18:15:26;1.40;1.00
20650;DHT22;10484;48.736;9.332;2022-12-15T18:17:53;1.40;1.00
20650;DHT22;10484;48.736;9.332;2022-12-15T18:20:19;1.40;1.00
20650;DHT22;10484;48.736;9.332;2022-12-15T18:22:45;1.30;1.00
20650;DHT22;10484;48.736;9.332;2022-12-15T18:25:23;1.30;1.00